createdAt,value
2023-04-13T00:00:58.113Z,65.80
2023-04-13T00:03:26.287Z,64.97
2023-04-13T00:05:55.068Z,64.89
2023-04-13T00:08:23.583Z,65.84
2023-04-13T00:10:51.742Z,65.66
2023-04-13T00:13:19.729Z,65.28
2023-04-13T00:15:47.841Z,65.87
2023-04-13T00:18:15.847Z,66.27
2023-04-13T00:20:43.808Z,66.53
2023-04-13T00:23:12.570Z,66.23
2023-04-13T00:25:40.487Z,66.36
2023-04-13T00:28:09.268Z,66.94
2023-04-13T00:30:37.336Z,66.33
2023-04-13T00:33:06.247Z,68.03
2023-04-13T00:35:34.423Z,68.88
2023-04-13T00:38:05.299Z,69.06
2023-04-13T00:40:33.520Z,67.93
2023-04-13T00:43:02.536Z,66.80
2023-04-13T00:45:30.743Z,66.58
2023-04-13T00:48:00.422Z,66.59
2023-04-13T00:50:29.323Z,66.99
2023-04-13T00:52:58.165Z,66.49
2023-04-13T00:55:27.979Z,66.49
2023-04-13T00:57:56.183Z,67.11
2023-04-13T01:00:25.905Z,67.15
2023-04-13T01:02:56.187Z,66.50
2023-04-13T01:05:26.995Z,66.48
2023-04-13T01:08:13.539Z,67.34
2023-04-13T01:11:06.125Z,68.96
2023-04-13T01:13:56.685Z,68.89
2023-04-13T01:16:33.365Z,69.60
2023-04-13T01:19:06.446Z,69.56
2023-04-13T01:21:35.824Z,70.00
2023-04-13T01:24:17.151Z,68.78
2023-04-13T01:26:58.597Z,68.84
2023-04-13T01:29:27.785Z,68.64
2023-04-13T01:31:56.640Z,70.11
2023-04-13T01:34:25.640Z,69.82
2023-04-13T01:36:54.284Z,69.26
2023-04-13T01:39:22.562Z,69.90
2023-04-13T01:42:00.536Z,70.14
2023-04-13T01:44:33.668Z,69.53
2023-04-13T01:47:16.323Z,69.95
2023-04-13T01:50:04.285Z,69.32
2023-04-13T01:53:08.161Z,67.79
2023-04-13T01:55:42.206Z,67.70
2023-04-13T01:58:13.785Z,68.81
2023-04-13T02:00:43.591Z,70.01
2023-04-13T02:03:15.677Z,70.35
2023-04-13T02:05:44.184Z,69.90
2023-04-13T02:08:12.458Z,70.69
2023-04-13T02:10:46.492Z,70.44
2023-04-13T02:13:14.873Z,70.78
2023-04-13T02:15:43.418Z,71.24
2023-04-13T02:18:11.590Z,70.72
2023-04-13T02:20:43.677Z,70.83
2023-04-13T02:23:18.093Z,71.18
2023-04-13T02:25:48.252Z,71.63
2023-04-13T02:28:20.773Z,70.99
2023-04-13T02:30:48.885Z,71.07
2023-04-13T02:33:17.311Z,71.53
2023-04-13T02:35:45.798Z,71.35
2023-04-13T02:38:15.989Z,71.28
2023-04-13T02:40:49.607Z,72.08
2023-04-13T02:43:17.868Z,70.87
2023-04-13T02:45:46.458Z,69.76
2023-04-13T02:48:17.546Z,69.97
2023-04-13T02:50:46.528Z,70.13
2023-04-13T02:55:53.896Z,71.45
2023-04-13T02:58:24.071Z,71.57
2023-04-13T03:00:58.968Z,72.51
2023-04-13T03:03:27.474Z,72.00
2023-04-13T03:05:55.505Z,72.14
2023-04-13T03:08:31.346Z,71.52
2023-04-13T03:11:10.138Z,71.81
2023-04-13T03:13:43.365Z,71.47
2023-04-13T03:16:11.758Z,71.50
2023-04-13T03:18:39.700Z,71.11
2023-04-13T03:21:09.338Z,71.63
2023-04-13T03:23:45.467Z,72.40
2023-04-13T03:26:14.793Z,71.97
2023-04-13T03:28:42.845Z,72.30
2023-04-13T03:31:11.887Z,70.98
2023-04-13T03:33:39.919Z,70.02
2023-04-13T03:36:09.433Z,71.28
2023-04-13T03:38:38.387Z,71.11
2023-04-13T03:41:07.192Z,71.12
2023-04-13T03:43:35.433Z,71.23
2023-04-13T03:46:15.892Z,70.91
2023-04-13T03:48:44.205Z,70.54
2023-04-13T03:51:16.664Z,70.18
2023-04-13T03:53:53.130Z,69.55
2023-04-13T03:56:24.880Z,70.44
2023-04-13T03:58:54.487Z,69.74
2023-04-13T04:01:27.296Z,70.56
2023-04-13T04:03:58.213Z,70.01
2023-04-13T04:06:29.150Z,70.80
2023-04-13T04:09:18.296Z,71.44
2023-04-13T04:11:47.938Z,71.12
2023-04-13T04:14:23.183Z,72.02
2023-04-13T04:17:01.555Z,71.96
2023-04-13T04:19:29.807Z,71.92
2023-04-13T04:21:58.264Z,70.98
2023-04-13T04:24:31.200Z,70.66
2023-04-13T04:27:01.647Z,71.09
2023-04-13T04:29:35.634Z,70.76
2023-04-13T04:32:15.737Z,72.00
2023-04-13T04:34:45.045Z,70.85
2023-04-13T04:37:20.827Z,69.45
2023-04-13T04:40:01.637Z,69.77
2023-04-13T04:42:29.762Z,69.18
2023-04-13T04:45:00.217Z,69.10
2023-04-13T04:47:30.907Z,69.53
2023-04-13T04:50:12.680Z,68.58
2023-04-13T04:52:42.518Z,68.93
2023-04-13T04:55:13.475Z,68.28
2023-04-13T04:57:44.132Z,68.92
2023-04-13T05:00:17.711Z,69.28
2023-04-13T05:02:54.960Z,69.29
2023-04-13T05:05:23.616Z,69.48
2023-04-13T05:07:51.955Z,70.33
2023-04-13T05:10:20.421Z,69.08
2023-04-13T05:12:56.803Z,69.46
2023-04-13T05:15:26.968Z,68.71
2023-04-13T05:17:56.831Z,68.78
2023-04-13T05:20:28.619Z,68.27
2023-04-13T05:23:04.928Z,68.90
2023-04-13T05:25:39.832Z,68.67
2023-04-13T05:28:16.216Z,67.99
2023-04-13T05:30:45.010Z,68.10
2023-04-13T05:33:13.101Z,67.26
2023-04-13T05:35:42.602Z,68.15
2023-04-13T05:38:12.111Z,66.76
2023-04-13T05:40:41.534Z,67.03
2023-04-13T05:43:10.340Z,65.58
2023-04-13T05:45:45.284Z,66.26
2023-04-13T05:48:16.098Z,64.53
2023-04-13T05:50:46.553Z,63.33
2023-04-13T05:53:15.319Z,63.26
2023-04-13T05:55:55.060Z,63.56
2023-04-13T05:58:23.031Z,64.00
2023-04-13T06:00:57.904Z,63.97
2023-04-13T06:03:30.951Z,62.80
2023-04-13T06:05:59.807Z,61.92
2023-04-13T06:08:32.800Z,55.41
2023-04-13T06:11:01.926Z,47.04
2023-04-13T06:13:31.905Z,39.98
2023-04-13T06:16:00.207Z,36.94
2023-04-13T06:18:28.794Z,32.88
2023-04-13T06:20:59.309Z,29.81
2023-04-13T06:23:27.288Z,27.72
2023-04-13T06:25:58.705Z,26.17
2023-04-13T06:28:45.332Z,24.15
2023-04-13T06:31:14.782Z,22.50
2023-04-13T06:33:44.760Z,21.27
2023-04-13T06:36:13.497Z,20.62
2023-04-13T06:38:41.478Z,20.12
2023-04-13T06:41:14.006Z,19.49
2023-04-13T06:43:45.204Z,18.79
2023-04-13T06:46:35.800Z,17.65
2023-04-13T06:49:09.664Z,17.95
2023-04-13T06:51:39.942Z,17.39
2023-04-13T06:54:10.834Z,16.60
2023-04-13T06:56:44.305Z,16.50
2023-04-13T06:59:13.133Z,16.08
2023-04-13T07:01:41.070Z,15.77
2023-04-13T07:04:09.250Z,15.18
2023-04-13T07:06:38.625Z,15.10
2023-04-13T07:09:06.556Z,14.92
2023-04-13T07:11:34.483Z,14.64
2023-04-13T07:14:04.024Z,14.87
2023-04-13T07:16:32.214Z,14.78
2023-04-13T07:19:03.475Z,14.67
2023-04-13T07:21:33.546Z,14.34
2023-04-13T07:24:05.157Z,14.31
2023-04-13T07:26:35.778Z,14.12
2023-04-13T07:29:04.177Z,13.40
2023-04-13T07:31:37.996Z,13.50
2023-04-13T07:34:07.186Z,13.36
2023-04-13T07:36:43.859Z,12.76
2023-04-13T07:39:16.055Z,13.06
2023-04-13T07:41:48.661Z,13.23
2023-04-13T07:44:22.046Z,12.97
2023-04-13T07:46:50.215Z,12.61
2023-04-13T07:49:18.860Z,12.74
2023-04-13T07:51:47.797Z,12.33
2023-04-13T07:54:17.581Z,13.24
2023-04-13T07:56:47.223Z,12.84
2023-04-13T07:59:15.984Z,13.30
2023-04-13T08:01:45.956Z,13.76
2023-04-13T08:04:14.069Z,13.53
2023-04-13T08:06:43.369Z,13.84
2023-04-13T08:09:11.422Z,14.42
2023-04-13T08:11:39.579Z,14.37
2023-04-13T08:14:10.133Z,13.22
2023-04-13T08:16:39.452Z,13.61
2023-04-13T08:19:10.157Z,13.71
2023-04-13T08:21:43.415Z,14.49
2023-04-13T08:24:11.787Z,14.29
2023-04-13T08:26:42.749Z,14.41
2023-04-13T08:29:11.534Z,14.25
2023-04-13T08:31:40.847Z,14.74
2023-04-13T08:34:11.883Z,14.42
2023-04-13T08:36:42.623Z,15.18
2023-04-13T08:39:12.354Z,14.51
2023-04-13T08:41:45.830Z,15.02
2023-04-13T08:44:16.451Z,14.94
2023-04-13T08:46:47.649Z,14.91
2023-04-13T08:49:19.712Z,15.04
2023-04-13T08:52:11.278Z,15.82
2023-04-13T08:54:41.748Z,15.09
2023-04-13T08:57:19.262Z,14.95
2023-04-13T08:59:50.621Z,16.29
2023-04-13T09:02:24.641Z,16.54
2023-04-13T09:05:00.748Z,16.35
2023-04-13T09:07:34.991Z,16.02
2023-04-13T09:10:09.774Z,16.32
2023-04-13T09:12:41.330Z,15.95
2023-04-13T09:15:11.892Z,16.02
2023-04-13T09:17:49.142Z,15.30
2023-04-13T09:20:21.940Z,15.63
2023-04-13T09:22:52.082Z,15.62
2023-04-13T09:25:25.820Z,16.27
2023-04-13T09:27:54.598Z,16.54
2023-04-13T09:30:25.929Z,16.40
2023-04-13T09:33:07.782Z,16.87
2023-04-13T09:35:36.871Z,17.69
2023-04-13T09:38:08.527Z,17.24
2023-04-13T09:40:39.176Z,15.92
2023-04-13T09:43:09.633Z,17.35
2023-04-13T09:45:39.705Z,16.63
2023-04-13T09:48:19.092Z,17.52
2023-04-13T09:51:02.099Z,16.90
2023-04-13T09:53:43.579Z,18.02
2023-04-13T09:56:12.554Z,17.35
2023-04-13T09:58:45.272Z,17.03
2023-04-13T10:01:17.595Z,16.65
2023-04-13T10:03:46.053Z,18.13
2023-04-13T10:06:14.774Z,18.62
2023-04-13T10:08:45.465Z,17.99
2023-04-13T10:11:15.301Z,16.96
2023-04-13T10:14:03.005Z,17.01
2023-04-13T10:17:05.132Z,16.47
2023-04-13T10:19:41.512Z,17.00
2023-04-13T10:22:11.810Z,16.72
2023-04-13T10:24:40.625Z,16.93
2023-04-13T10:27:16.599Z,17.28
2023-04-13T10:29:45.278Z,16.56
2023-04-13T10:32:28.708Z,15.75
2023-04-13T10:34:57.162Z,17.42
2023-04-13T10:37:28.999Z,16.45
2023-04-13T10:40:09.179Z,17.10
2023-04-13T10:45:27.905Z,19.11
2023-04-13T10:47:58.705Z,20.18
2023-04-13T10:50:30.287Z,19.65
2023-04-13T10:53:04.352Z,20.04
2023-04-13T10:55:33.530Z,19.40
2023-04-13T10:58:03.149Z,20.39
2023-04-13T11:00:45.659Z,21.92
2023-04-13T11:03:16.907Z,20.36
2023-04-13T11:05:47.716Z,21.17
2023-04-13T11:08:19.752Z,19.63
2023-04-13T11:10:52.891Z,18.93
2023-04-13T11:13:21.827Z,19.12
2023-04-13T11:15:50.276Z,18.07
2023-04-13T11:18:29.294Z,19.04
2023-04-13T11:20:57.394Z,19.19
2023-04-13T11:23:25.661Z,19.72
2023-04-13T11:26:02.220Z,21.39
2023-04-13T11:28:42.009Z,22.46
2023-04-13T11:31:12.030Z,22.08
2023-04-13T11:33:41.123Z,21.86
2023-04-13T11:36:12.134Z,23.11
2023-04-13T11:38:42.593Z,22.77
2023-04-13T11:43:42.614Z,22.89
2023-04-13T11:46:13.944Z,24.34
2023-04-13T11:48:42.682Z,23.84
2023-04-13T11:51:11.806Z,22.23
2023-04-13T11:53:41.155Z,21.81
2023-04-13T11:56:09.523Z,21.94
2023-04-13T11:58:39.497Z,20.30
2023-04-13T12:03:57.165Z,20.70
2023-04-13T12:06:30.190Z,19.94
2023-04-13T12:09:09.458Z,20.79
2023-04-13T12:11:44.729Z,20.92
2023-04-13T12:19:30.278Z,22.95
2023-04-13T12:22:00.395Z,22.84
2023-04-13T12:24:33.707Z,23.38
2023-04-13T12:29:40.032Z,22.30
2023-04-13T12:32:14.690Z,22.59
2023-04-13T12:34:45.109Z,23.08
2023-04-13T12:37:13.103Z,23.70
2023-04-13T12:39:42.465Z,24.54
2023-04-13T12:42:11.049Z,25.12
2023-04-13T12:44:39.046Z,23.69
2023-04-13T12:47:07.254Z,22.43
2023-04-13T12:49:35.348Z,23.24
2023-04-13T12:52:03.642Z,23.04
2023-04-13T12:54:31.615Z,22.81
2023-04-13T12:57:00.706Z,23.94
2023-04-13T12:59:28.628Z,23.89
2023-04-13T13:01:57.193Z,24.80
2023-04-13T13:04:25.279Z,24.10
2023-04-13T13:06:53.425Z,24.45
2023-04-13T13:09:21.246Z,23.34
2023-04-13T13:11:49.610Z,23.98
2023-04-13T13:14:17.673Z,23.15
2023-04-13T13:16:45.493Z,24.28
2023-04-13T13:19:13.988Z,23.63
2023-04-13T13:21:44.382Z,23.10
2023-04-13T13:24:14.274Z,24.19
2023-04-13T13:27:05.852Z,24.51
2023-04-13T13:29:33.568Z,24.42
2023-04-13T13:32:01.767Z,23.63
2023-04-13T13:34:30.808Z,23.35
2023-04-13T13:36:59.210Z,23.61
2023-04-13T13:39:27.637Z,24.00
2023-04-13T13:41:55.553Z,24.92
2023-04-13T13:44:23.824Z,25.32
2023-04-13T13:46:51.951Z,25.98
2023-04-13T13:49:22.825Z,25.57
2023-04-13T13:52:10.004Z,25.38
2023-04-13T13:54:46.871Z,24.86
2023-04-13T13:57:15.022Z,26.14
2023-04-13T13:59:43.259Z,24.27
2023-04-13T14:02:11.477Z,25.35
2023-04-13T14:04:39.714Z,24.72
2023-04-13T14:07:08.901Z,25.45
2023-04-13T14:09:36.859Z,24.82
2023-04-13T14:12:05.268Z,25.81
2023-04-13T14:14:33.248Z,25.54
2023-04-13T14:17:01.310Z,25.49
2023-04-13T14:19:29.694Z,24.82
2023-04-13T14:21:58.013Z,24.77
2023-04-13T14:24:26.630Z,26.24
2023-04-13T14:26:55.230Z,25.58
2023-04-13T14:29:23.625Z,24.83
2023-04-13T14:31:53.225Z,24.08
2023-04-13T14:34:22.274Z,24.03
2023-04-13T14:36:54.365Z,25.36
2023-04-13T14:39:26.271Z,24.22
2023-04-13T14:41:56.447Z,23.21
2023-04-13T14:44:25.218Z,24.97
2023-04-13T14:46:53.907Z,25.31
2023-04-13T14:49:22.854Z,25.66
2023-04-13T14:51:51.405Z,26.02
2023-04-13T14:54:19.948Z,25.53
2023-04-13T14:56:49.029Z,24.50
2023-04-13T14:59:17.635Z,25.61
2023-04-13T15:01:46.570Z,25.61
2023-04-13T15:04:15.127Z,26.32
2023-04-13T15:06:44.166Z,27.20
2023-04-13T15:09:13.334Z,26.20
2023-04-13T15:11:43.048Z,26.43
2023-04-13T15:14:11.914Z,26.38
2023-04-13T15:16:40.496Z,26.20
2023-04-13T15:19:08.535Z,26.10
2023-04-13T15:21:36.870Z,26.71
2023-04-13T15:24:05.640Z,25.86
2023-04-13T15:26:40.855Z,26.04
2023-04-13T15:29:09.889Z,26.38
2023-04-13T15:31:39.142Z,26.75
2023-04-13T15:34:09.032Z,27.10
2023-04-13T15:36:37.455Z,26.18
2023-04-13T15:39:05.899Z,26.52
2023-04-13T15:41:34.262Z,26.93
2023-04-13T15:44:03.804Z,28.44
2023-04-13T15:46:33.262Z,27.34
2023-04-13T15:49:02.299Z,28.18
2023-04-13T15:51:32.419Z,26.78
2023-04-13T15:54:03.192Z,27.33
2023-04-13T15:56:31.752Z,27.60
2023-04-13T15:59:00.148Z,27.54
2023-04-13T16:01:28.976Z,28.08
2023-04-13T16:03:57.259Z,28.32
2023-04-13T16:06:26.331Z,27.37
2023-04-13T16:08:57.079Z,26.86
2023-04-13T16:11:29.310Z,27.88
2023-04-13T16:14:07.368Z,27.34
2023-04-13T16:16:47.073Z,27.63
2023-04-13T16:19:18.433Z,27.68
2023-04-13T16:21:47.271Z,28.15
2023-04-13T16:24:15.988Z,28.33
2023-04-13T16:26:43.620Z,28.00
2023-04-13T16:29:11.468Z,28.44
2023-04-13T16:31:39.619Z,28.46
2023-04-13T16:34:24.331Z,30.18
2023-04-13T16:36:54.298Z,29.31
2023-04-13T16:39:22.733Z,29.44
2023-04-13T16:41:50.965Z,29.34
2023-04-13T16:44:18.942Z,29.45
2023-04-13T16:46:46.975Z,29.53
2023-04-13T16:49:14.911Z,30.29
2023-04-13T16:51:42.824Z,30.23
2023-04-13T16:54:14.117Z,31.40
2023-04-13T16:56:42.278Z,30.45
2023-04-13T16:59:10.151Z,32.42
2023-04-13T17:01:39.849Z,31.67
2023-04-13T17:04:08.921Z,32.26
2023-04-13T17:06:38.230Z,32.90
2023-04-13T17:09:06.749Z,34.14
2023-04-13T17:11:35.255Z,34.09
2023-04-13T17:14:03.627Z,34.63
2023-04-13T17:16:32.073Z,36.85
2023-04-13T17:19:01.065Z,36.65
2023-04-13T17:21:29.755Z,37.86
2023-04-13T17:23:58.078Z,37.11
2023-04-13T17:26:26.352Z,38.39
2023-04-13T17:28:54.648Z,38.08
2023-04-13T17:31:23.543Z,38.69
2023-04-13T17:33:52.351Z,40.92
2023-04-13T17:36:23.216Z,41.72
2023-04-13T17:38:52.086Z,42.14
2023-04-13T17:41:20.541Z,42.29
2023-04-13T17:43:48.912Z,41.11
2023-04-13T17:46:17.332Z,41.86
2023-04-13T17:48:45.265Z,42.41
2023-04-13T17:51:13.596Z,42.73
2023-04-13T17:53:42.254Z,44.11
2023-04-13T17:56:20.154Z,44.50
2023-04-13T17:58:48.752Z,43.59
2023-04-13T18:01:17.129Z,43.98
2023-04-13T18:03:45.676Z,43.73
2023-04-13T18:06:14.283Z,44.33
2023-04-13T18:08:42.795Z,43.61
2023-04-13T18:11:12.601Z,43.75
2023-04-13T18:13:41.670Z,42.98
2023-04-13T18:16:11.753Z,44.35
2023-04-13T18:18:42.123Z,44.44
2023-04-13T18:21:10.512Z,44.75
2023-04-13T18:23:40.230Z,44.47
2023-04-13T18:26:08.792Z,44.92
2023-04-13T18:28:41.400Z,46.24
2023-04-13T18:31:09.946Z,47.27
2023-04-13T18:33:38.556Z,47.58
2023-04-13T18:36:07.390Z,46.91
2023-04-13T18:38:35.570Z,45.43
2023-04-13T18:41:03.998Z,46.69
2023-04-13T18:43:32.370Z,46.38
2023-04-13T18:46:01.599Z,45.71
2023-04-13T18:48:31.579Z,45.73
2023-04-13T18:51:01.717Z,46.50
2023-04-13T18:53:30.569Z,46.80
2023-04-13T18:55:59.520Z,46.76
2023-04-13T18:58:27.811Z,47.12
2023-04-13T19:00:56.182Z,47.06
2023-04-13T19:03:24.523Z,46.33
2023-04-13T19:05:52.645Z,46.90
2023-04-13T19:08:20.924Z,47.28
2023-04-13T19:10:49.430Z,47.68
2023-04-13T19:13:17.835Z,48.62
2023-04-13T19:15:46.398Z,48.28
2023-04-13T19:18:15.288Z,47.99
2023-04-13T19:20:43.587Z,48.69
2023-04-13T19:23:12.313Z,46.88
2023-04-13T19:25:40.829Z,45.82
2023-04-13T19:28:09.284Z,46.26
2023-04-13T19:30:37.666Z,46.76
2023-04-13T19:33:06.396Z,46.43
2023-04-13T19:35:34.937Z,46.49
2023-04-13T19:38:03.514Z,47.56
2023-04-13T19:40:31.936Z,46.79
2023-04-13T19:43:00.578Z,46.33
2023-04-13T19:45:29.179Z,46.34
2023-04-13T19:47:57.874Z,45.77
2023-04-13T19:50:26.227Z,46.73
2023-04-13T19:52:54.781Z,46.40
2023-04-13T19:55:23.532Z,46.44
2023-04-13T19:57:51.845Z,47.49
2023-04-13T20:00:22.958Z,46.87
2023-04-13T20:02:52.878Z,46.59
2023-04-13T20:05:21.632Z,47.75
2023-04-13T20:07:50.191Z,47.37
2023-04-13T20:10:18.974Z,48.35
2023-04-13T20:12:47.277Z,48.83
2023-04-13T20:15:15.951Z,48.68
2023-04-13T20:17:43.999Z,48.88
2023-04-13T20:20:12.710Z,49.02
2023-04-13T20:22:40.871Z,48.64
2023-04-13T20:25:10.516Z,50.06
2023-04-13T20:27:42.278Z,50.61
2023-04-13T20:30:11.451Z,51.49
2023-04-13T20:32:39.621Z,51.51
2023-04-13T20:35:09.324Z,51.50
2023-04-13T20:37:38.104Z,50.07
2023-04-13T20:40:07.357Z,50.27
2023-04-13T20:42:35.672Z,51.62
2023-04-13T20:45:04.874Z,52.09
2023-04-13T20:47:35.943Z,52.49
2023-04-13T20:50:05.071Z,50.44
2023-04-13T20:52:33.161Z,52.88
2023-04-13T20:55:01.351Z,53.42
2023-04-13T20:57:31.153Z,53.30
2023-04-13T20:59:59.442Z,54.16
2023-04-13T21:02:29.087Z,54.19
2023-04-13T21:04:57.795Z,54.79
2023-04-13T21:07:26.187Z,54.77
2023-04-13T21:09:54.530Z,55.31
2023-04-13T21:12:22.827Z,53.56
2023-04-13T21:14:51.070Z,53.33
2023-04-13T21:17:19.083Z,53.90
2023-04-13T21:19:47.127Z,53.93
2023-04-13T21:22:16.136Z,55.90
2023-04-13T21:24:45.048Z,55.20
2023-04-13T21:27:14.376Z,53.59
2023-04-13T21:29:42.600Z,55.67
2023-04-13T21:32:11.000Z,55.07
2023-04-13T21:34:39.175Z,55.46
2023-04-13T21:37:07.381Z,55.39
2023-04-13T21:39:35.636Z,56.02
2023-04-13T21:42:05.281Z,56.11
2023-04-13T21:44:33.196Z,55.88
2023-04-13T21:47:01.431Z,55.89
2023-04-13T21:49:29.673Z,56.29
2023-04-13T21:51:57.556Z,56.79
2023-04-13T21:54:26.052Z,57.09
2023-04-13T21:56:53.968Z,56.84
2023-04-13T21:59:23.782Z,57.03
2023-04-13T22:01:51.788Z,57.60
2023-04-13T22:04:20.082Z,57.63
2023-04-13T22:06:48.089Z,57.62
2023-04-13T22:09:16.437Z,58.33
2023-04-13T22:11:44.336Z,59.35
2023-04-13T22:14:12.397Z,58.46
2023-04-13T22:16:40.367Z,58.47
2023-04-13T22:19:08.634Z,59.04
2023-04-13T22:21:37.768Z,59.06
2023-04-13T22:24:05.994Z,58.81
2023-04-13T22:26:33.790Z,59.31
2023-04-13T22:29:02.185Z,59.79
2023-04-13T22:31:30.449Z,59.68
2023-04-13T22:33:58.422Z,59.70
2023-04-13T22:36:27.261Z,59.91
2023-04-13T22:38:55.183Z,59.42
2023-04-13T22:41:23.161Z,59.93
2023-04-13T22:43:51.016Z,60.12
2023-04-13T22:46:19.219Z,60.30
2023-04-13T22:48:47.115Z,59.76
2023-04-13T22:51:15.144Z,60.08
2023-04-13T22:53:43.080Z,60.62
2023-04-13T22:56:11.481Z,59.79
2023-04-13T22:58:39.423Z,60.32
2023-04-13T23:01:07.649Z,60.20
2023-04-13T23:03:36.085Z,59.97
2023-04-13T23:06:05.791Z,60.19
2023-04-13T23:08:34.296Z,60.72
2023-04-13T23:11:12.032Z,60.44
2023-04-13T23:13:40.326Z,60.71
2023-04-13T23:16:08.397Z,60.83
2023-04-13T23:18:36.386Z,60.70
2023-04-13T23:21:11.617Z,62.30
2023-04-13T23:23:40.190Z,62.57
2023-04-13T23:26:08.078Z,62.73
2023-04-13T23:28:36.236Z,62.42
2023-04-13T23:31:08.199Z,62.33
2023-04-13T23:33:36.492Z,61.79
2023-04-13T23:36:04.764Z,61.60
2023-04-13T23:38:33.103Z,61.52
2023-04-13T23:41:01.317Z,62.62
2023-04-13T23:43:29.238Z,63.21
2023-04-13T23:45:58.980Z,62.99
2023-04-13T23:48:27.417Z,62.86
2023-04-13T23:50:55.529Z,62.68
2023-04-13T23:53:23.932Z,62.43
2023-04-13T23:55:51.942Z,62.70
2023-04-13T23:58:19.943Z,62.25
